sensor_id;sensor_type;location;lat;lon;timestamp;temperature;humidity
66582;SHT31;53438;48.898;2.308;2022-09-29T03:00:16;12.67;71.87
66582;SHT31;53438;48.898;2.308;2022-09-29T03:02:43;12.76;71.70
66582;SHT31;53438;48.898;2.308;2022-09-29T03:05:11;12.72;71.63
66582;SHT31;53438;48.898;2.308;2022-09-29T03:07:37;12.81;71.54
66582;SHT31;53438;48.898;2.308;2022-09-29T03:10:04;12.80;71.33
66582;SHT31;53438;48.898;2.308;2022-09-29T03:12:30;12.83;71.09
66582;SHT31;53438;48.898;2.308;2022-09-29T03:14:55;12.83;71.02
66582;SHT31;53438;48.898;2.308;2022-09-29T03:17:22;12.90;70.94
66582;SHT31;53438;48.898;2.308;2022-09-29T03:19:47;12.87;70.86
66582;SHT31;53438;48.898;2.308;2022-09-29T03:22:13;12.94;70.69
66582;SHT31;53438;48.898;2.308;2022-09-29T03:24:39;12.98;70.50
66582;SHT31;53438;48.898;2.308;2022-09-29T03:27:04;13.01;70.42
66582;SHT31;53438;48.898;2.308;2022-09-29T03:29:30;13.01;70.55
66582;SHT31;53438;48.898;2.308;2022-09-29T03:31:57;12.97;70.45
66582;SHT31;53438;48.898;2.308;2022-09-29T03:34:23;12.98;70.92
66582;SHT31;53438;48.898;2.308;2022-09-29T03:36:48;12.97;70.88
66582;SHT31;53438;48.898;2.308;2022-09-29T03:39:13;12.83;71.37
66582;SHT31;53438;48.898;2.308;2022-09-29T03:41:39;12.85;71.32
66582;SHT31;53438;48.898;2.308;2022-09-29T03:44:04;12.93;71.32
66582;SHT31;53438;48.898;2.308;2022-09-29T03:46:29;12.93;71.44
66582;SHT31;53438;48.898;2.308;2022-09-29T03:48:55;12.98;71.31
66582;SHT31;53438;48.898;2.308;2022-09-29T03:51:20;12.98;71.53
66582;SHT31;53438;48.898;2.308;2022-09-29T03:53:45;12.97;71.66
66582;SHT31;53438;48.898;2.308;2022-09-29T03:56:11;12.85;72.05
66582;SHT31;53438;48.898;2.308;2022-09-29T03:58:36;12.94;71.92
66582;SHT31;53438;48.898;2.308;2022-09-29T04:01:01;12.97;72.00
66582;SHT31;53438;48.898;2.308;2022-09-29T04:03:27;12.98;72.06
66582;SHT31;53438;48.898;2.308;2022-09-29T04:05:53;13.04;71.92
66582;SHT31;53438;48.898;2.308;2022-09-29T04:08:18;12.93;72.18
66582;SHT31;53438;48.898;2.308;2022-09-29T04:10:46;12.97;72.16
66582;SHT31;53438;48.898;2.308;2022-09-29T04:13:11;12.90;72.33
66582;SHT31;53438;48.898;2.308;2022-09-29T04:15:37;12.98;72.29
66582;SHT31;53438;48.898;2.308;2022-09-29T04:18:03;12.97;72.47
66582;SHT31;53438;48.898;2.308;2022-09-29T04:20:28;12.97;72.48
66582;SHT31;53438;48.898;2.308;2022-09-29T04:22:54;12.94;72.49
66582;SHT31;53438;48.898;2.308;2022-09-29T04:25:19;12.91;72.71
66582;SHT31;53438;48.898;2.308;2022-09-29T04:27:45;12.97;72.55
66582;SHT31;53438;48.898;2.308;2022-09-29T04:30:10;12.95;72.53
66582;SHT31;53438;48.898;2.308;2022-09-29T04:32:36;12.85;72.61
66582;SHT31;53438;48.898;2.308;2022-09-29T04:35:02;12.88;72.83
66582;SHT31;53438;48.898;2.308;2022-09-29T04:37:27;12.83;73.12
66582;SHT31;53438;48.898;2.308;2022-09-29T04:39:53;12.90;72.94
66582;SHT31;53438;48.898;2.308;2022-09-29T04:42:19;12.80;73.11
66582;SHT31;53438;48.898;2.308;2022-09-29T04:44:45;12.83;73.31
66582;SHT31;53438;48.898;2.308;2022-09-29T04:47:11;12.91;72.87
66582;SHT31;53438;48.898;2.308;2022-09-29T04:49:36;12.97;72.94
66582;SHT31;53438;48.898;2.308;2022-09-29T04:52:03;12.98;72.95
66582;SHT31;53438;48.898;2.308;2022-09-29T04:54:32;12.91;73.00
66582;SHT31;53438;48.898;2.308;2022-09-29T04:56:58;12.83;73.18
66582;SHT31;53438;48.898;2.308;2022-09-29T04:59:24;12.79;73.11
66582;SHT31;53438;48.898;2.308;2022-09-29T05:01:49;12.88;73.00
66582;SHT31;53438;48.898;2.308;2022-09-29T05:04:14;12.94;72.92
66582;SHT31;53438;48.898;2.308;2022-09-29T05:06:40;12.98;72.93
66582;SHT31;53438;48.898;2.308;2022-09-29T05:09:05;13.07;72.80
66582;SHT31;53438;48.898;2.308;2022-09-29T05:11:31;13.14;72.31
66582;SHT31;53438;48.898;2.308;2022-09-29T05:13:57;13.11;72.31
66582;SHT31;53438;48.898;2.308;2022-09-29T05:16:23;13.04;72.56
66582;SHT31;53438;48.898;2.308;2022-09-29T05:18:48;12.91;72.70
66582;SHT31;53438;48.898;2.308;2022-09-29T05:21:14;12.76;73.22
66582;SHT31;53438;48.898;2.308;2022-09-29T05:23:39;12.84;73.16
66582;SHT31;53438;48.898;2.308;2022-09-29T05:26:09;12.91;73.00
66582;SHT31;53438;48.898;2.308;2022-09-29T05:28:35;12.30;74.29
66582;SHT31;53438;48.898;2.308;2022-09-29T05:31:02;12.29;74.62
66582;SHT31;53438;48.898;2.308;2022-09-29T05:33:28;12.46;74.40
66582;SHT31;53438;48.898;2.308;2022-09-29T05:35:53;12.15;74.74
66582;SHT31;53438;48.898;2.308;2022-09-29T05:38:19;12.22;75.18
66582;SHT31;53438;48.898;2.308;2022-09-29T05:40:45;12.39;74.63
66582;SHT31;53438;48.898;2.308;2022-09-29T05:43:10;12.49;74.39
66582;SHT31;53438;48.898;2.308;2022-09-29T05:45:36;12.60;74.14
66582;SHT31;53438;48.898;2.308;2022-09-29T05:48:01;12.56;73.96
66582;SHT31;53438;48.898;2.308;2022-09-29T05:50:26;12.54;74.12
66582;SHT31;53438;48.898;2.308;2022-09-29T05:52:52;12.52;74.22
66582;SHT31;53438;48.898;2.308;2022-09-29T05:55:18;12.34;74.67
66582;SHT31;53438;48.898;2.308;2022-09-29T05:57:47;12.43;74.33
66582;SHT31;53438;48.898;2.308;2022-09-29T06:00:13;12.30;74.72
66582;SHT31;53438;48.898;2.308;2022-09-29T06:02:39;12.39;74.64
66582;SHT31;53438;48.898;2.308;2022-09-29T06:05:04;12.29;74.37
66582;SHT31;53438;48.898;2.308;2022-09-29T06:07:30;12.23;74.94
66582;SHT31;53438;48.898;2.308;2022-09-29T06:09:55;12.29;74.93
66582;SHT31;53438;48.898;2.308;2022-09-29T06:12:20;12.08;75.35
66582;SHT31;53438;48.898;2.308;2022-09-29T06:14:46;12.22;75.07
66582;SHT31;53438;48.898;2.308;2022-09-29T06:17:11;12.12;74.98
66582;SHT31;53438;48.898;2.308;2022-09-29T06:19:37;12.15;75.17
66582;SHT31;53438;48.898;2.308;2022-09-29T06:22:02;11.86;76.10
66582;SHT31;53438;48.898;2.308;2022-09-29T06:24:27;11.95;76.12
66582;SHT31;53438;48.898;2.308;2022-09-29T06:26:53;11.99;75.83
66582;SHT31;53438;48.898;2.308;2022-09-29T06:29:18;11.92;76.17
66582;SHT31;53438;48.898;2.308;2022-09-29T06:31:43;11.70;76.69
66582;SHT31;53438;48.898;2.308;2022-09-29T06:34:09;11.78;76.62
66582;SHT31;53438;48.898;2.308;2022-09-29T06:36:40;11.81;76.63
66582;SHT31;53438;48.898;2.308;2022-09-29T06:39:25;11.94;76.19
66582;SHT31;53438;48.898;2.308;2022-09-29T06:41:50;12.09;76.12
66582;SHT31;53438;48.898;2.308;2022-09-29T06:44:19;12.08;75.96
66582;SHT31;53438;48.898;2.308;2022-09-29T06:46:45;12.12;75.43
66582;SHT31;53438;48.898;2.308;2022-09-29T06:49:11;12.18;75.34
66582;SHT31;53438;48.898;2.308;2022-09-29T06:51:37;12.28;75.05
66582;SHT31;53438;48.898;2.308;2022-09-29T06:54:02;12.28;74.84
66582;SHT31;53438;48.898;2.308;2022-09-29T06:56:28;12.34;75.04
66582;SHT31;53438;48.898;2.308;2022-09-29T06:58:54;12.02;75.81
66582;SHT31;53438;48.898;2.308;2022-09-29T07:01:20;12.13;75.50
66582;SHT31;53438;48.898;2.308;2022-09-29T07:03:45;12.30;75.19
66582;SHT31;53438;48.898;2.308;2022-09-29T07:06:10;12.22;75.01
66582;SHT31;53438;48.898;2.308;2022-09-29T07:08:37;12.16;75.17
66582;SHT31;53438;48.898;2.308;2022-09-29T07:11:05;12.25;75.08
66582;SHT31;53438;48.898;2.308;2022-09-29T07:13:31;12.42;74.92
66582;SHT31;53438;48.898;2.308;2022-09-29T07:16:11;12.08;75.45
66582;SHT31;53438;48.898;2.308;2022-09-29T07:18:39;12.04;75.85
66582;SHT31;53438;48.898;2.308;2022-09-29T07:21:09;11.94;75.86
66582;SHT31;53438;48.898;2.308;2022-09-29T07:23:35;11.95;76.06
66582;SHT31;53438;48.898;2.308;2022-09-29T07:26:02;11.98;76.23
66582;SHT31;53438;48.898;2.308;2022-09-29T07:28:28;12.06;75.84
66582;SHT31;53438;48.898;2.308;2022-09-29T07:31:01;12.02;75.79
66582;SHT31;53438;48.898;2.308;2022-09-29T07:33:27;12.01;75.86
66582;SHT31;53438;48.898;2.308;2022-09-29T07:35:53;12.02;75.91
66582;SHT31;53438;48.898;2.308;2022-09-29T07:38:18;12.09;75.72
66582;SHT31;53438;48.898;2.308;2022-09-29T07:40:44;12.18;75.70
66582;SHT31;53438;48.898;2.308;2022-09-29T07:43:09;12.18;75.29
66582;SHT31;53438;48.898;2.308;2022-09-29T07:45:35;12.13;75.78
66582;SHT31;53438;48.898;2.308;2022-09-29T07:48:00;12.15;75.47
66582;SHT31;53438;48.898;2.308;2022-09-29T07:50:25;12.25;75.22
66582;SHT31;53438;48.898;2.308;2022-09-29T07:52:51;12.39;74.51
66582;SHT31;53438;48.898;2.308;2022-09-29T07:55:16;12.59;74.31
66582;SHT31;53438;48.898;2.308;2022-09-29T07:57:42;12.56;73.74
66582;SHT31;53438;48.898;2.308;2022-09-29T08:00:08;12.50;73.66
66582;SHT31;53438;48.898;2.308;2022-09-29T08:02:34;12.68;73.46
66582;SHT31;53438;48.898;2.308;2022-09-29T08:04:59;12.68;73.08
66582;SHT31;53438;48.898;2.308;2022-09-29T08:07:26;12.64;73.56
66582;SHT31;53438;48.898;2.308;2022-09-29T08:09:51;12.76;73.22
66582;SHT31;53438;48.898;2.308;2022-09-29T08:12:17;12.93;72.93
66582;SHT31;53438;48.898;2.308;2022-09-29T08:14:43;12.81;73.06
66582;SHT31;53438;48.898;2.308;2022-09-29T08:17:08;12.90;72.95
66582;SHT31;53438;48.898;2.308;2022-09-29T08:19:33;12.81;72.80
66582;SHT31;53438;48.898;2.308;2022-09-29T08:21:59;12.60;73.61
66582;SHT31;53438;48.898;2.308;2022-09-29T08:24:26;12.76;73.38
66582;SHT31;53438;48.898;2.308;2022-09-29T08:26:52;12.84;73.08
66582;SHT31;53438;48.898;2.308;2022-09-29T08:29:17;12.98;72.77
66582;SHT31;53438;48.898;2.308;2022-09-29T08:31:43;13.04;72.59
66582;SHT31;53438;48.898;2.308;2022-09-29T08:34:09;12.85;72.64
66582;SHT31;53438;48.898;2.308;2022-09-29T08:36:34;12.70;73.24
66582;SHT31;53438;48.898;2.308;2022-09-29T08:39:00;12.67;73.24
66582;SHT31;53438;48.898;2.308;2022-09-29T08:47:20;12.76;73.01
66582;SHT31;53438;48.898;2.308;2022-09-29T08:49:52;12.73;72.91
66582;SHT31;53438;48.898;2.308;2022-09-29T08:52:32;12.79;73.05
66582;SHT31;53438;48.898;2.308;2022-09-29T08:58:01;12.53;73.46
66582;SHT31;53438;48.898;2.308;2022-09-29T09:00:36;12.65;73.15
66582;SHT31;53438;48.898;2.308;2022-09-29T09:06:03;12.73;72.93
66582;SHT31;53438;48.898;2.308;2022-09-29T09:17:02;12.72;72.47
66582;SHT31;53438;48.898;2.308;2022-09-29T09:19:50;12.56;72.53
66582;SHT31;53438;48.898;2.308;2022-09-29T09:22:36;12.61;72.30
66582;SHT31;53438;48.898;2.308;2022-09-29T09:25:17;12.60;72.13
66582;SHT31;53438;48.898;2.308;2022-09-29T09:27:48;12.57;72.34
66582;SHT31;53438;48.898;2.308;2022-09-29T09:30:17;12.77;72.25
66582;SHT31;53438;48.898;2.308;2022-09-29T09:32:55;12.84;71.65
66582;SHT31;53438;48.898;2.308;2022-09-29T09:38:14;13.00;70.99
66582;SHT31;53438;48.898;2.308;2022-09-29T09:40:46;13.32;70.35
66582;SHT31;53438;48.898;2.308;2022-09-29T09:43:21;13.58;69.69
66582;SHT31;53438;48.898;2.308;2022-09-29T09:46:03;13.77;68.98
66582;SHT31;53438;48.898;2.308;2022-09-29T09:48:56;13.93;67.08
66582;SHT31;53438;48.898;2.308;2022-09-29T09:53:58;14.27;65.15
66582;SHT31;53438;48.898;2.308;2022-09-29T09:56:50;14.27;66.02
66582;SHT31;53438;48.898;2.308;2022-09-29T10:02:02;14.16;65.83
66582;SHT31;53438;48.898;2.308;2022-09-29T10:04:28;13.97;66.52
66582;SHT31;53438;48.898;2.308;2022-09-29T10:06:54;13.91;66.42
66582;SHT31;53438;48.898;2.308;2022-09-29T10:09:20;13.91;66.64
66582;SHT31;53438;48.898;2.308;2022-09-29T10:11:46;13.79;66.80
66582;SHT31;53438;48.898;2.308;2022-09-29T10:14:15;13.93;66.50
66582;SHT31;53438;48.898;2.308;2022-09-29T10:19:22;13.83;66.83
66582;SHT31;53438;48.898;2.308;2022-09-29T10:21:48;13.69;67.17
66582;SHT31;53438;48.898;2.308;2022-09-29T10:24:27;13.80;66.84
66582;SHT31;53438;48.898;2.308;2022-09-29T10:26:57;13.73;66.73
66582;SHT31;53438;48.898;2.308;2022-09-29T10:29:45;13.89;66.75
66582;SHT31;53438;48.898;2.308;2022-09-29T10:34:50;14.03;65.96
66582;SHT31;53438;48.898;2.308;2022-09-29T10:37:36;14.10;65.87
66582;SHT31;53438;48.898;2.308;2022-09-29T10:40:22;13.97;65.52
66582;SHT31;53438;48.898;2.308;2022-09-29T10:42:48;13.89;66.18
66582;SHT31;53438;48.898;2.308;2022-09-29T10:45:22;13.90;66.30
66582;SHT31;53438;48.898;2.308;2022-09-29T10:50:28;14.07;66.65
66582;SHT31;53438;48.898;2.308;2022-09-29T10:52:56;14.16;68.97
66582;SHT31;53438;48.898;2.308;2022-09-29T10:55:24;14.03;69.98
66582;SHT31;53438;48.898;2.308;2022-09-29T10:57:51;13.82;71.04
66582;SHT31;53438;48.898;2.308;2022-09-29T11:00:35;13.65;71.16
66582;SHT31;53438;48.898;2.308;2022-09-29T11:05:30;13.52;71.45
66582;SHT31;53438;48.898;2.308;2022-09-29T11:07:56;13.72;70.92
66582;SHT31;53438;48.898;2.308;2022-09-29T11:10:37;13.74;69.90
66582;SHT31;53438;48.898;2.308;2022-09-29T11:15:43;13.76;68.70
66582;SHT31;53438;48.898;2.308;2022-09-29T11:18:18;13.77;68.86
66582;SHT31;53438;48.898;2.308;2022-09-29T11:20:44;13.65;68.99
66582;SHT31;53438;48.898;2.308;2022-09-29T11:23:28;13.58;69.58
66582;SHT31;53438;48.898;2.308;2022-09-29T11:34:29;13.49;69.58
66582;SHT31;53438;48.898;2.308;2022-09-29T11:39:45;13.31;70.81
66582;SHT31;53438;48.898;2.308;2022-09-29T11:42:26;13.25;70.97
66582;SHT31;53438;48.898;2.308;2022-09-29T11:44:58;13.28;70.89
66582;SHT31;53438;48.898;2.308;2022-09-29T11:47:29;13.15;71.45
66582;SHT31;53438;48.898;2.308;2022-09-29T11:55:55;13.29;71.30
66582;SHT31;53438;48.898;2.308;2022-09-29T11:58:49;13.31;70.71
66582;SHT31;53438;48.898;2.308;2022-09-29T12:01:25;13.25;70.33
66582;SHT31;53438;48.898;2.308;2022-09-29T12:06:55;13.25;71.30
66582;SHT31;53438;48.898;2.308;2022-09-29T12:09:43;13.12;71.69
66582;SHT31;53438;48.898;2.308;2022-09-29T12:12:35;13.18;72.42
66582;SHT31;53438;48.898;2.308;2022-09-29T12:17:51;13.24;72.42
66582;SHT31;53438;48.898;2.308;2022-09-29T12:20:29;13.26;72.44
66582;SHT31;53438;48.898;2.308;2022-09-29T12:22:58;13.32;71.92
66582;SHT31;53438;48.898;2.308;2022-09-29T12:25:28;13.16;70.48
66582;SHT31;53438;48.898;2.308;2022-09-29T12:28:05;13.31;69.74
66582;SHT31;53438;48.898;2.308;2022-09-29T12:30:47;13.38;71.41
66582;SHT31;53438;48.898;2.308;2022-09-29T12:33:22;13.39;70.33
66582;SHT31;53438;48.898;2.308;2022-09-29T12:38:58;13.32;70.82
66582;SHT31;53438;48.898;2.308;2022-09-29T12:41:30;13.46;70.81
66582;SHT31;53438;48.898;2.308;2022-09-29T12:46:33;13.56;70.97
66582;SHT31;53438;48.898;2.308;2022-09-29T12:49:12;13.63;71.72
66582;SHT31;53438;48.898;2.308;2022-09-29T12:51:44;13.76;71.00
66582;SHT31;53438;48.898;2.308;2022-09-29T12:59:32;13.67;70.22
66582;SHT31;53438;48.898;2.308;2022-09-29T13:02:04;13.77;68.54
66582;SHT31;53438;48.898;2.308;2022-09-29T13:04:56;13.84;69.07
66582;SHT31;53438;48.898;2.308;2022-09-29T13:19:32;13.74;72.25
66582;SHT31;53438;48.898;2.308;2022-09-29T13:21:45;13.89;72.20
66582;SHT31;53438;48.898;2.308;2022-09-29T13:27:36;14.01;70.88
66582;SHT31;53438;48.898;2.308;2022-09-29T13:30:15;14.07;70.30
66582;SHT31;53438;48.898;2.308;2022-09-29T13:32:47;14.14;70.17
66582;SHT31;53438;48.898;2.308;2022-09-29T13:35:23;14.11;68.61
66582;SHT31;53438;48.898;2.308;2022-09-29T13:38:01;14.24;69.06
66582;SHT31;53438;48.898;2.308;2022-09-29T13:40:29;14.37;68.89
66582;SHT31;53438;48.898;2.308;2022-09-29T13:43:04;14.46;67.54
66582;SHT31;53438;48.898;2.308;2022-09-29T13:58:27;14.65;67.43
66582;SHT31;53438;48.898;2.308;2022-09-29T14:00:54;14.67;66.94
66582;SHT31;53438;48.898;2.308;2022-09-29T14:03:24;14.71;66.40
66582;SHT31;53438;48.898;2.308;2022-09-29T14:06:17;14.61;66.96
66582;SHT31;53438;48.898;2.308;2022-09-29T14:08:58;14.73;67.76
66582;SHT31;53438;48.898;2.308;2022-09-29T14:11:36;14.76;66.88
66582;SHT31;53438;48.898;2.308;2022-09-29T14:14:20;14.86;66.70
66582;SHT31;53438;48.898;2.308;2022-09-29T14:17:36;14.85;66.18
66582;SHT31;53438;48.898;2.308;2022-09-29T14:32:59;14.85;63.86
66582;SHT31;53438;48.898;2.308;2022-09-29T14:35:34;14.91;64.72
66582;SHT31;53438;48.898;2.308;2022-09-29T14:40:38;14.99;64.45
66582;SHT31;53438;48.898;2.308;2022-09-29T14:43:14;15.06;63.21
66582;SHT31;53438;48.898;2.308;2022-09-29T14:54:41;15.37;62.82
66582;SHT31;53438;48.898;2.308;2022-09-29T15:00:13;15.55;62.45
66582;SHT31;53438;48.898;2.308;2022-09-29T15:02:43;15.49;60.50
66582;SHT31;53438;48.898;2.308;2022-09-29T15:05:22;15.54;60.90
66582;SHT31;53438;48.898;2.308;2022-09-29T15:07:48;15.67;60.86
66582;SHT31;53438;48.898;2.308;2022-09-29T15:10:30;15.75;61.11
66582;SHT31;53438;48.898;2.308;2022-09-29T15:15:41;15.75;59.29
66582;SHT31;53438;48.898;2.308;2022-09-29T15:21:25;15.87;59.98
66582;SHT31;53438;48.898;2.308;2022-09-29T15:26:30;15.98;59.10
66582;SHT31;53438;48.898;2.308;2022-09-29T15:28:57;15.98;58.65
66582;SHT31;53438;48.898;2.308;2022-09-29T15:31:28;16.05;58.53
66582;SHT31;53438;48.898;2.308;2022-09-29T15:33:55;16.02;58.03
66582;SHT31;53438;48.898;2.308;2022-09-29T15:36:24;16.02;58.00
66582;SHT31;53438;48.898;2.308;2022-09-29T15:38:53;15.91;57.63
66582;SHT31;53438;48.898;2.308;2022-09-29T15:41:20;15.92;58.38
66582;SHT31;53438;48.898;2.308;2022-09-29T15:43:53;15.87;58.64
66582;SHT31;53438;48.898;2.308;2022-09-29T15:46:38;15.87;58.74
66582;SHT31;53438;48.898;2.308;2022-09-29T15:49:08;15.84;59.19
66582;SHT31;53438;48.898;2.308;2022-09-29T15:51:35;15.68;58.79
66582;SHT31;53438;48.898;2.308;2022-09-29T15:54:02;15.65;58.87
66582;SHT31;53438;48.898;2.308;2022-09-29T15:56:33;15.68;59.12
66582;SHT31;53438;48.898;2.308;2022-09-29T15:59:18;15.64;55.75
66582;SHT31;53438;48.898;2.308;2022-09-29T16:01:44;15.62;56.38
66582;SHT31;53438;48.898;2.308;2022-09-29T16:04:09;15.61;55.94
66582;SHT31;53438;48.898;2.308;2022-09-29T16:06:35;15.54;56.98
66582;SHT31;53438;48.898;2.308;2022-09-29T16:09:04;15.51;57.36
66582;SHT31;53438;48.898;2.308;2022-09-29T16:11:37;15.44;57.78
66582;SHT31;53438;48.898;2.308;2022-09-29T16:14:09;15.53;57.22
66582;SHT31;53438;48.898;2.308;2022-09-29T16:16:41;15.51;57.71
66582;SHT31;53438;48.898;2.308;2022-09-29T16:19:21;15.51;58.04
66582;SHT31;53438;48.898;2.308;2022-09-29T16:21:53;15.53;57.95
66582;SHT31;53438;48.898;2.308;2022-09-29T16:24:20;15.47;57.81
66582;SHT31;53438;48.898;2.308;2022-09-29T16:26:51;15.47;57.95
66582;SHT31;53438;48.898;2.308;2022-09-29T16:31:43;15.44;56.39
66582;SHT31;53438;48.898;2.308;2022-09-29T16:39:15;15.39;54.66
66582;SHT31;53438;48.898;2.308;2022-09-29T16:41:41;15.36;54.85
66582;SHT31;53438;48.898;2.308;2022-09-29T16:46:41;15.36;55.06
66582;SHT31;53438;48.898;2.308;2022-09-29T16:49:22;15.30;54.77
66582;SHT31;53438;48.898;2.308;2022-09-29T16:51:50;15.24;54.93
66582;SHT31;53438;48.898;2.308;2022-09-29T16:54:20;15.23;54.49
66582;SHT31;53438;48.898;2.308;2022-09-29T16:56:48;15.23;55.22
66582;SHT31;53438;48.898;2.308;2022-09-29T16:59:32;15.23;55.02
66582;SHT31;53438;48.898;2.308;2022-09-29T17:01:58;15.18;55.29
66582;SHT31;53438;48.898;2.308;2022-09-29T17:04:24;15.16;55.37
66582;SHT31;53438;48.898;2.308;2022-09-29T17:06:49;15.07;55.69
66582;SHT31;53438;48.898;2.308;2022-09-29T17:09:19;15.09;56.07
66582;SHT31;53438;48.898;2.308;2022-09-29T17:11:48;15.14;56.35
66582;SHT31;53438;48.898;2.308;2022-09-29T17:14:14;15.12;56.39
66582;SHT31;53438;48.898;2.308;2022-09-29T17:16:40;15.13;57.13
66582;SHT31;53438;48.898;2.308;2022-09-29T17:19:08;15.12;57.15
66582;SHT31;53438;48.898;2.308;2022-09-29T17:21:34;15.12;57.40
66582;SHT31;53438;48.898;2.308;2022-09-29T17:23:59;15.18;57.51
66582;SHT31;53438;48.898;2.308;2022-09-29T17:26:44;15.02;58.10
66582;SHT31;53438;48.898;2.308;2022-09-29T17:29:29;15.09;58.35
66582;SHT31;53438;48.898;2.308;2022-09-29T17:31:54;15.07;58.60
66582;SHT31;53438;48.898;2.308;2022-09-29T17:34:19;15.06;58.83
66582;SHT31;53438;48.898;2.308;2022-09-29T17:36:54;15.07;58.45
66582;SHT31;53438;48.898;2.308;2022-09-29T17:39:20;15.09;58.35
66582;SHT31;53438;48.898;2.308;2022-09-29T17:41:46;15.03;58.65
66582;SHT31;53438;48.898;2.308;2022-09-29T17:44:13;14.92;58.40
66582;SHT31;53438;48.898;2.308;2022-09-29T17:46:38;14.83;57.68
66582;SHT31;53438;48.898;2.308;2022-09-29T17:49:10;14.83;57.92
66582;SHT31;53438;48.898;2.308;2022-09-29T17:51:35;14.88;57.89
66582;SHT31;53438;48.898;2.308;2022-09-29T17:54:01;14.83;57.78
66582;SHT31;53438;48.898;2.308;2022-09-29T17:56:26;14.78;58.00
66582;SHT31;53438;48.898;2.308;2022-09-29T17:58:53;14.75;58.28
66582;SHT31;53438;48.898;2.308;2022-09-29T18:01:21;14.83;57.86
66582;SHT31;53438;48.898;2.308;2022-09-29T18:03:47;14.78;57.95
66582;SHT31;53438;48.898;2.308;2022-09-29T18:06:18;14.72;58.40
66582;SHT31;53438;48.898;2.308;2022-09-29T18:08:50;14.69;58.67
66582;SHT31;53438;48.898;2.308;2022-09-29T18:11:20;14.73;58.47
66582;SHT31;53438;48.898;2.308;2022-09-29T18:13:46;14.69;58.86
66582;SHT31;53438;48.898;2.308;2022-09-29T18:16:18;14.69;58.97
66582;SHT31;53438;48.898;2.308;2022-09-29T18:18:43;14.67;58.84
66582;SHT31;53438;48.898;2.308;2022-09-29T18:21:09;14.75;58.62
66582;SHT31;53438;48.898;2.308;2022-09-29T18:23:35;14.67;58.78
66582;SHT31;53438;48.898;2.308;2022-09-29T18:26:02;14.67;58.87
66582;SHT31;53438;48.898;2.308;2022-09-29T18:28:28;14.60;59.23
66582;SHT31;53438;48.898;2.308;2022-09-29T18:31:06;14.57;59.38
66582;SHT31;53438;48.898;2.308;2022-09-29T18:33:35;14.57;59.53
66582;SHT31;53438;48.898;2.308;2022-09-29T18:36:00;14.58;59.81
66582;SHT31;53438;48.898;2.308;2022-09-29T18:38:26;14.65;59.59
66582;SHT31;53438;48.898;2.308;2022-09-29T18:40:52;14.61;59.57
66582;SHT31;53438;48.898;2.308;2022-09-29T18:43:22;14.64;59.52
66582;SHT31;53438;48.898;2.308;2022-09-29T18:45:49;14.67;59.85
66582;SHT31;53438;48.898;2.308;2022-09-29T18:48:15;14.65;60.07
66582;SHT31;53438;48.898;2.308;2022-09-29T18:50:43;14.69;59.84
66582;SHT31;53438;48.898;2.308;2022-09-29T18:53:10;14.73;60.09
66582;SHT31;53438;48.898;2.308;2022-09-29T18:55:36;14.81;59.98
66582;SHT31;53438;48.898;2.308;2022-09-29T18:58:01;14.75;59.94
66582;SHT31;53438;48.898;2.308;2022-09-29T19:00:32;14.57;60.53
66582;SHT31;53438;48.898;2.308;2022-09-29T19:03:00;14.57;60.49
66582;SHT31;53438;48.898;2.308;2022-09-29T19:05:30;14.52;60.71
66582;SHT31;53438;48.898;2.308;2022-09-29T19:08:01;14.48;60.84
66582;SHT31;53438;48.898;2.308;2022-09-29T19:10:28;14.60;60.62
66582;SHT31;53438;48.898;2.308;2022-09-29T19:13:04;14.51;60.88
66582;SHT31;53438;48.898;2.308;2022-09-29T19:15:33;14.52;60.98
66582;SHT31;53438;48.898;2.308;2022-09-29T19:17:59;14.51;60.88
66582;SHT31;53438;48.898;2.308;2022-09-29T19:20:26;14.44;61.21
66582;SHT31;53438;48.898;2.308;2022-09-29T19:22:53;14.41;61.24
66582;SHT31;53438;48.898;2.308;2022-09-29T19:25:22;14.42;61.37
66582;SHT31;53438;48.898;2.308;2022-09-29T19:27:49;14.40;61.50
66582;SHT31;53438;48.898;2.308;2022-09-29T19:30:18;14.48;61.27
66582;SHT31;53438;48.898;2.308;2022-09-29T19:32:43;14.46;61.31
66582;SHT31;53438;48.898;2.308;2022-09-29T19:35:12;14.46;61.24
66582;SHT31;53438;48.898;2.308;2022-09-29T19:37:38;14.41;61.57
66582;SHT31;53438;48.898;2.308;2022-09-29T19:40:05;14.38;61.79
66582;SHT31;53438;48.898;2.308;2022-09-29T19:42:31;14.37;61.89
66582;SHT31;53438;48.898;2.308;2022-09-29T19:44:57;14.31;62.02
66582;SHT31;53438;48.898;2.308;2022-09-29T19:47:23;14.34;62.07
66582;SHT31;53438;48.898;2.308;2022-09-29T19:49:48;14.37;62.40
66582;SHT31;53438;48.898;2.308;2022-09-29T19:52:14;14.30;62.22
66582;SHT31;53438;48.898;2.308;2022-09-29T19:54:40;14.28;62.43
66582;SHT31;53438;48.898;2.308;2022-09-29T19:57:09;14.30;62.45
66582;SHT31;53438;48.898;2.308;2022-09-29T19:59:37;14.27;62.57
66582;SHT31;53438;48.898;2.308;2022-09-29T20:02:09;14.30;62.74
66582;SHT31;53438;48.898;2.308;2022-09-29T20:04:38;14.24;62.97
66582;SHT31;53438;48.898;2.308;2022-09-29T20:07:04;14.14;62.99
66582;SHT31;53438;48.898;2.308;2022-09-29T20:09:31;14.10;63.28
66582;SHT31;53438;48.898;2.308;2022-09-29T20:11:57;14.13;63.45
66582;SHT31;53438;48.898;2.308;2022-09-29T20:14:23;14.13;63.45
66582;SHT31;53438;48.898;2.308;2022-09-29T20:16:53;14.07;63.68
66582;SHT31;53438;48.898;2.308;2022-09-29T20:19:20;14.10;64.12
66582;SHT31;53438;48.898;2.308;2022-09-29T20:21:49;14.03;64.45
66582;SHT31;53438;48.898;2.308;2022-09-29T20:24:16;14.04;64.63
66582;SHT31;53438;48.898;2.308;2022-09-29T20:26:43;13.82;65.33
66582;SHT31;53438;48.898;2.308;2022-09-29T20:29:10;13.65;66.02
66582;SHT31;53438;48.898;2.308;2022-09-29T20:31:35;13.51;66.86
66582;SHT31;53438;48.898;2.308;2022-09-29T20:34:03;13.58;67.02
66582;SHT31;53438;48.898;2.308;2022-09-29T20:36:28;13.49;67.84
66582;SHT31;53438;48.898;2.308;2022-09-29T20:38:54;13.53;67.86
66582;SHT31;53438;48.898;2.308;2022-09-29T20:41:19;13.62;67.83
66582;SHT31;53438;48.898;2.308;2022-09-29T20:43:46;13.70;67.88
66582;SHT31;53438;48.898;2.308;2022-09-29T20:46:13;13.59;68.15
66582;SHT31;53438;48.898;2.308;2022-09-29T20:48:39;13.61;68.21
66582;SHT31;53438;48.898;2.308;2022-09-29T20:51:07;13.53;68.37
66582;SHT31;53438;48.898;2.308;2022-09-29T20:53:37;13.26;69.72
66582;SHT31;53438;48.898;2.308;2022-09-29T20:56:07;13.26;69.87
66582;SHT31;53438;48.898;2.308;2022-09-29T20:58:34;13.21;70.46
66582;SHT31;53438;48.898;2.308;2022-09-29T21:01:18;13.21;70.49
66582;SHT31;53438;48.898;2.308;2022-09-29T21:04:03;13.18;70.68
66582;SHT31;53438;48.898;2.308;2022-09-29T21:06:34;13.19;70.64
66582;SHT31;53438;48.898;2.308;2022-09-29T21:09:01;13.32;70.34
66582;SHT31;53438;48.898;2.308;2022-09-29T21:11:27;13.38;70.19